Terminal Aerodrome Forecast
Issued by NWS

Home | Current Version | Previous Version | Text Only | Print | Product List | Glossary On
Versions: 1 2 3 4 5 6 7 8 9 10 11 12 13 14 15 16 17 18 19 20 21 22 23 24 25 26 27
000
FTUS41 KPHI 040521
TAFPNE
TAF
KPNE 040521Z 0406/0506 24008KT 4SM BR OVC006 WS020/24045KT
      TEMPO 0406/0410 2SM -RADZ OVC015
     FM041000 25006KT 2SM -RADZ BR OVC004
     FM041400 27004KT 4SM -SHRA BR OVC008
     FM042200 30006KT 4SM -RA BR OVC005
     FM050300 33006KT 2SM -PL BR OVC005=

USA.gov is the U.S. government's official web portal to all federal, state and local government web resources and services.